sensor_id;sensor_type;location;lat;lon;timestamp;temperature;humidity
23744;DHT22;12052;53.478;10.182;2022-08-19T00:00:21;19.60;99.90
23744;DHT22;12052;53.478;10.182;2022-08-19T00:02:46;19.50;99.90
23744;DHT22;12052;53.478;10.182;2022-08-19T00:05:13;19.50;99.90
23744;DHT22;12052;53.478;10.182;2022-08-19T00:07:41;19.50;99.90
23744;DHT22;12052;53.478;10.182;2022-08-19T00:10:09;19.50;99.90
23744;DHT22;12052;53.478;10.182;2022-08-19T00:12:35;19.40;99.90
23744;DHT22;12052;53.478;10.182;2022-08-19T00:15:07;19.50;99.90
23744;DHT22;12052;53.478;10.182;2022-08-19T00:17:37;19.50;99.90
23744;DHT22;12052;53.478;10.182;2022-08-19T00:20:03;19.50;99.90
23744;DHT22;12052;53.478;10.182;2022-08-19T00:22:29;19.50;99.90
23744;DHT22;12052;53.478;10.182;2022-08-19T00:24:54;19.50;99.90
23744;DHT22;12052;53.478;10.182;2022-08-19T00:27:20;19.50;99.90
23744;DHT22;12052;53.478;10.182;2022-08-19T00:29:46;19.50;99.90
23744;DHT22;12052;53.478;10.182;2022-08-19T00:32:11;19.40;99.90
23744;DHT22;12052;53.478;10.182;2022-08-19T00:34:37;19.40;99.90
23744;DHT22;12052;53.478;10.182;2022-08-19T00:37:03;19.40;99.90
23744;DHT22;12052;53.478;10.182;2022-08-19T00:39:29;19.40;99.90
23744;DHT22;12052;53.478;10.182;2022-08-19T00:41:55;19.50;99.90
23744;DHT22;12052;53.478;10.182;2022-08-19T00:44:25;19.50;99.90
23744;DHT22;12052;53.478;10.182;2022-08-19T00:46:52;19.40;99.90
23744;DHT22;12052;53.478;10.182;2022-08-19T00:51:57;19.40;99.90
23744;DHT22;12052;53.478;10.182;2022-08-19T00:54:24;19.40;99.90
23744;DHT22;12052;53.478;10.182;2022-08-19T00:56:50;19.40;99.90
23744;DHT22;12052;53.478;10.182;2022-08-19T00:59:18;19.40;99.90
23744;DHT22;12052;53.478;10.182;2022-08-19T01:01:45;19.40;99.90
23744;DHT22;12052;53.478;10.182;2022-08-19T01:04:12;19.40;99.90
23744;DHT22;12052;53.478;10.182;2022-08-19T01:06:39;19.40;99.90
23744;DHT22;12052;53.478;10.182;2022-08-19T01:09:07;19.40;99.90
23744;DHT22;12052;53.478;10.182;2022-08-19T01:11:35;19.30;99.90
23744;DHT22;12052;53.478;10.182;2022-08-19T01:14:01;19.40;99.90
23744;DHT22;12052;53.478;10.182;2022-08-19T01:16:28;19.40;99.90
23744;DHT22;12052;53.478;10.182;2022-08-19T01:18:55;19.40;99.90
23744;DHT22;12052;53.478;10.182;2022-08-19T01:21:31;19.40;99.90
23744;DHT22;12052;53.478;10.182;2022-08-19T01:23:58;19.40;99.90
23744;DHT22;12052;53.478;10.182;2022-08-19T01:26:25;19.40;99.90
23744;DHT22;12052;53.478;10.182;2022-08-19T01:28:53;19.50;99.90
23744;DHT22;12052;53.478;10.182;2022-08-19T01:31:22;19.50;99.90
23744;DHT22;12052;53.478;10.182;2022-08-19T01:33:50;19.50;99.90
23744;DHT22;12052;53.478;10.182;2022-08-19T01:36:33;19.50;99.90
23744;DHT22;12052;53.478;10.182;2022-08-19T01:39:05;19.50;99.90
23744;DHT22;12052;53.478;10.182;2022-08-19T01:41:31;19.50;99.90
23744;DHT22;12052;53.478;10.182;2022-08-19T01:43:56;19.40;99.90
23744;DHT22;12052;53.478;10.182;2022-08-19T01:46:22;19.40;99.90
23744;DHT22;12052;53.478;10.182;2022-08-19T01:48:48;19.50;99.90
23744;DHT22;12052;53.478;10.182;2022-08-19T01:51:13;19.40;99.90
23744;DHT22;12052;53.478;10.182;2022-08-19T01:53:40;19.40;99.90
23744;DHT22;12052;53.478;10.182;2022-08-19T01:56:06;19.50;99.90
23744;DHT22;12052;53.478;10.182;2022-08-19T01:58:40;19.50;99.90
23744;DHT22;12052;53.478;10.182;2022-08-19T02:01:07;19.40;99.90
23744;DHT22;12052;53.478;10.182;2022-08-19T02:03:33;19.40;99.90
23744;DHT22;12052;53.478;10.182;2022-08-19T02:06:00;19.40;99.90
23744;DHT22;12052;53.478;10.182;2022-08-19T02:08:29;19.30;99.90
23744;DHT22;12052;53.478;10.182;2022-08-19T02:10:55;19.30;99.90
23744;DHT22;12052;53.478;10.182;2022-08-19T02:13:21;19.30;99.90
23744;DHT22;12052;53.478;10.182;2022-08-19T02:15:48;19.30;99.90
23744;DHT22;12052;53.478;10.182;2022-08-19T02:18:14;19.30;99.90
23744;DHT22;12052;53.478;10.182;2022-08-19T02:20:41;19.30;99.90
23744;DHT22;12052;53.478;10.182;2022-08-19T02:23:08;19.20;99.90
23744;DHT22;12052;53.478;10.182;2022-08-19T02:25:34;19.30;99.90
23744;DHT22;12052;53.478;10.182;2022-08-19T02:28:00;19.20;99.90
23744;DHT22;12052;53.478;10.182;2022-08-19T02:30:25;19.30;99.90
23744;DHT22;12052;53.478;10.182;2022-08-19T02:32:52;19.20;99.90
23744;DHT22;12052;53.478;10.182;2022-08-19T02:35:18;19.30;99.90
23744;DHT22;12052;53.478;10.182;2022-08-19T02:37:44;19.20;99.90
23744;DHT22;12052;53.478;10.182;2022-08-19T02:40:31;19.20;99.90
23744;DHT22;12052;53.478;10.182;2022-08-19T02:43:00;19.20;99.90
23744;DHT22;12052;53.478;10.182;2022-08-19T02:45:31;19.20;99.90
23744;DHT22;12052;53.478;10.182;2022-08-19T02:47:56;19.20;99.90
23744;DHT22;12052;53.478;10.182;2022-08-19T02:50:22;19.20;99.90
23744;DHT22;12052;53.478;10.182;2022-08-19T02:52:48;19.20;99.90
23744;DHT22;12052;53.478;10.182;2022-08-19T02:55:13;19.20;99.90
23744;DHT22;12052;53.478;10.182;2022-08-19T02:57:39;19.20;99.90
23744;DHT22;12052;53.478;10.182;2022-08-19T03:00:06;19.20;99.90
23744;DHT22;12052;53.478;10.182;2022-08-19T03:02:32;19.20;99.90
23744;DHT22;12052;53.478;10.182;2022-08-19T03:04:57;19.20;99.90
23744;DHT22;12052;53.478;10.182;2022-08-19T03:07:23;19.20;99.90
23744;DHT22;12052;53.478;10.182;2022-08-19T03:09:48;19.20;99.90
23744;DHT22;12052;53.478;10.182;2022-08-19T03:12:14;19.30;99.90
23744;DHT22;12052;53.478;10.182;2022-08-19T03:14:40;19.30;99.90
23744;DHT22;12052;53.478;10.182;2022-08-19T03:17:06;19.30;99.90
23744;DHT22;12052;53.478;10.182;2022-08-19T03:19:33;19.20;99.90
23744;DHT22;12052;53.478;10.182;2022-08-19T03:21:58;19.20;99.90
23744;DHT22;12052;53.478;10.182;2022-08-19T03:24:24;19.20;99.90
23744;DHT22;12052;53.478;10.182;2022-08-19T03:26:52;19.20;99.90
23744;DHT22;12052;53.478;10.182;2022-08-19T03:29:19;19.20;99.90
23744;DHT22;12052;53.478;10.182;2022-08-19T03:31:45;19.20;99.90
23744;DHT22;12052;53.478;10.182;2022-08-19T03:34:14;19.20;99.90
23744;DHT22;12052;53.478;10.182;2022-08-19T03:36:40;19.20;99.90
23744;DHT22;12052;53.478;10.182;2022-08-19T03:39:06;19.20;99.90
23744;DHT22;12052;53.478;10.182;2022-08-19T03:41:38;19.20;99.90
23744;DHT22;12052;53.478;10.182;2022-08-19T03:44:04;19.20;99.90
23744;DHT22;12052;53.478;10.182;2022-08-19T03:46:32;19.20;99.90
23744;DHT22;12052;53.478;10.182;2022-08-19T03:48:59;19.20;99.90
23744;DHT22;12052;53.478;10.182;2022-08-19T03:51:30;19.20;99.90
23744;DHT22;12052;53.478;10.182;2022-08-19T03:53:59;19.20;99.90
23744;DHT22;12052;53.478;10.182;2022-08-19T03:56:26;19.10;99.90
23744;DHT22;12052;53.478;10.182;2022-08-19T03:58:53;19.20;99.90
23744;DHT22;12052;53.478;10.182;2022-08-19T04:01:21;19.20;99.90
23744;DHT22;12052;53.478;10.182;2022-08-19T04:03:47;19.10;99.90
23744;DHT22;12052;53.478;10.182;2022-08-19T04:06:14;19.10;99.90
23744;DHT22;12052;53.478;10.182;2022-08-19T04:08:41;19.10;99.90
23744;DHT22;12052;53.478;10.182;2022-08-19T04:11:19;19.00;99.90
23744;DHT22;12052;53.478;10.182;2022-08-19T04:13:49;19.00;99.90
23744;DHT22;12052;53.478;10.182;2022-08-19T04:16:17;19.00;99.90
23744;DHT22;12052;53.478;10.182;2022-08-19T04:18:43;19.00;99.90
23744;DHT22;12052;53.478;10.182;2022-08-19T04:21:16;19.10;99.90
23744;DHT22;12052;53.478;10.182;2022-08-19T04:23:42;19.10;99.90
23744;DHT22;12052;53.478;10.182;2022-08-19T04:26:13;19.10;99.90
23744;DHT22;12052;53.478;10.182;2022-08-19T04:28:39;19.10;99.90
23744;DHT22;12052;53.478;10.182;2022-08-19T04:31:05;19.00;99.90
23744;DHT22;12052;53.478;10.182;2022-08-19T04:33:30;19.00;99.90
23744;DHT22;12052;53.478;10.182;2022-08-19T04:35:56;19.00;99.90
23744;DHT22;12052;53.478;10.182;2022-08-19T04:38:23;19.10;99.90
23744;DHT22;12052;53.478;10.182;2022-08-19T04:40:50;19.10;99.90
23744;DHT22;12052;53.478;10.182;2022-08-19T04:43:37;19.10;99.90
23744;DHT22;12052;53.478;10.182;2022-08-19T04:46:11;19.00;99.90
23744;DHT22;12052;53.478;10.182;2022-08-19T04:48:37;19.00;99.90
23744;DHT22;12052;53.478;10.182;2022-08-19T04:51:07;18.90;99.90
23744;DHT22;12052;53.478;10.182;2022-08-19T04:53:35;18.90;99.90
23744;DHT22;12052;53.478;10.182;2022-08-19T04:56:06;18.90;99.90
23744;DHT22;12052;53.478;10.182;2022-08-19T04:58:33;19.00;99.90
23744;DHT22;12052;53.478;10.182;2022-08-19T05:00:59;19.00;99.90
23744;DHT22;12052;53.478;10.182;2022-08-19T05:03:25;19.00;99.90
23744;DHT22;12052;53.478;10.182;2022-08-19T05:05:51;19.00;99.90
23744;DHT22;12052;53.478;10.182;2022-08-19T05:08:20;19.00;99.90
23744;DHT22;12052;53.478;10.182;2022-08-19T05:10:48;18.90;99.90
23744;DHT22;12052;53.478;10.182;2022-08-19T05:13:15;18.90;99.90
23744;DHT22;12052;53.478;10.182;2022-08-19T05:15:41;18.90;99.90
23744;DHT22;12052;53.478;10.182;2022-08-19T05:18:07;18.90;99.90
23744;DHT22;12052;53.478;10.182;2022-08-19T05:20:51;18.80;99.90
23744;DHT22;12052;53.478;10.182;2022-08-19T05:23:35;18.80;99.90
23744;DHT22;12052;53.478;10.182;2022-08-19T05:26:01;18.70;99.90
23744;DHT22;12052;53.478;10.182;2022-08-19T05:28:26;18.70;99.90
23744;DHT22;12052;53.478;10.182;2022-08-19T05:30:53;18.70;99.90
23744;DHT22;12052;53.478;10.182;2022-08-19T05:33:21;18.70;99.90
23744;DHT22;12052;53.478;10.182;2022-08-19T05:35:48;18.70;99.90
23744;DHT22;12052;53.478;10.182;2022-08-19T05:38:15;18.70;99.90
23744;DHT22;12052;53.478;10.182;2022-08-19T05:40:41;18.70;99.90
23744;DHT22;12052;53.478;10.182;2022-08-19T05:43:08;18.70;99.90
23744;DHT22;12052;53.478;10.182;2022-08-19T05:45:39;18.70;99.90
23744;DHT22;12052;53.478;10.182;2022-08-19T05:48:05;18.70;99.90
23744;DHT22;12052;53.478;10.182;2022-08-19T05:50:31;18.70;99.90
23744;DHT22;12052;53.478;10.182;2022-08-19T05:52:56;18.70;99.90
23744;DHT22;12052;53.478;10.182;2022-08-19T05:55:22;18.60;99.90
23744;DHT22;12052;53.478;10.182;2022-08-19T05:57:48;18.70;99.90
23744;DHT22;12052;53.478;10.182;2022-08-19T06:00:14;18.70;99.90
23744;DHT22;12052;53.478;10.182;2022-08-19T06:02:41;18.70;99.90
23744;DHT22;12052;53.478;10.182;2022-08-19T06:05:07;18.70;99.90
23744;DHT22;12052;53.478;10.182;2022-08-19T06:07:36;18.70;99.90
23744;DHT22;12052;53.478;10.182;2022-08-19T06:10:04;18.80;99.90
23744;DHT22;12052;53.478;10.182;2022-08-19T06:12:31;18.80;99.90
23744;DHT22;12052;53.478;10.182;2022-08-19T06:15:03;18.80;99.90
23744;DHT22;12052;53.478;10.182;2022-08-19T06:17:29;18.80;99.90
23744;DHT22;12052;53.478;10.182;2022-08-19T06:19:55;18.80;99.90
23744;DHT22;12052;53.478;10.182;2022-08-19T06:22:21;18.80;99.90
23744;DHT22;12052;53.478;10.182;2022-08-19T06:24:47;18.80;99.90
23744;DHT22;12052;53.478;10.182;2022-08-19T06:27:13;18.80;99.90
23744;DHT22;12052;53.478;10.182;2022-08-19T06:29:38;18.90;99.90
23744;DHT22;12052;53.478;10.182;2022-08-19T06:32:04;18.90;99.90
23744;DHT22;12052;53.478;10.182;2022-08-19T06:34:32;18.80;99.90
23744;DHT22;12052;53.478;10.182;2022-08-19T06:36:59;18.90;99.90
23744;DHT22;12052;53.478;10.182;2022-08-19T06:39:29;18.80;99.90
23744;DHT22;12052;53.478;10.182;2022-08-19T06:41:57;18.90;99.90
23744;DHT22;12052;53.478;10.182;2022-08-19T06:44:25;18.90;99.90
23744;DHT22;12052;53.478;10.182;2022-08-19T06:46:55;18.90;99.90
23744;DHT22;12052;53.478;10.182;2022-08-19T06:49:21;18.90;99.90
23744;DHT22;12052;53.478;10.182;2022-08-19T06:51:49;18.90;99.90
23744;DHT22;12052;53.478;10.182;2022-08-19T06:54:16;18.90;99.90
23744;DHT22;12052;53.478;10.182;2022-08-19T06:56:42;19.00;99.90
23744;DHT22;12052;53.478;10.182;2022-08-19T06:59:16;19.00;99.90
23744;DHT22;12052;53.478;10.182;2022-08-19T07:01:48;19.10;99.90
23744;DHT22;12052;53.478;10.182;2022-08-19T07:04:16;19.00;99.90
23744;DHT22;12052;53.478;10.182;2022-08-19T07:06:43;19.10;99.90
23744;DHT22;12052;53.478;10.182;2022-08-19T07:09:11;19.10;99.90
23744;DHT22;12052;53.478;10.182;2022-08-19T07:11:37;19.10;99.90
23744;DHT22;12052;53.478;10.182;2022-08-19T07:14:03;19.20;99.90
23744;DHT22;12052;53.478;10.182;2022-08-19T07:16:29;19.20;99.90
23744;DHT22;12052;53.478;10.182;2022-08-19T07:18:55;19.30;99.90
23744;DHT22;12052;53.478;10.182;2022-08-19T07:21:27;19.30;99.90
23744;DHT22;12052;53.478;10.182;2022-08-19T07:23:53;19.30;99.90
23744;DHT22;12052;53.478;10.182;2022-08-19T07:26:24;19.40;99.90
23744;DHT22;12052;53.478;10.182;2022-08-19T07:28:51;19.40;99.90
23744;DHT22;12052;53.478;10.182;2022-08-19T07:31:19;19.40;99.90
23744;DHT22;12052;53.478;10.182;2022-08-19T07:33:47;19.40;99.90
23744;DHT22;12052;53.478;10.182;2022-08-19T07:36:15;19.40;99.90
23744;DHT22;12052;53.478;10.182;2022-08-19T07:38:43;19.50;99.90
23744;DHT22;12052;53.478;10.182;2022-08-19T07:41:11;19.50;99.90
23744;DHT22;12052;53.478;10.182;2022-08-19T07:43:38;19.50;99.90
23744;DHT22;12052;53.478;10.182;2022-08-19T07:46:04;19.50;99.90
23744;DHT22;12052;53.478;10.182;2022-08-19T07:48:30;19.60;99.90
23744;DHT22;12052;53.478;10.182;2022-08-19T07:50:59;19.60;99.90
23744;DHT22;12052;53.478;10.182;2022-08-19T07:53:28;19.60;99.90
23744;DHT22;12052;53.478;10.182;2022-08-19T07:55:54;19.60;99.90
23744;DHT22;12052;53.478;10.182;2022-08-19T07:58:21;19.60;99.90
23744;DHT22;12052;53.478;10.182;2022-08-19T08:00:50;19.60;99.90
23744;DHT22;12052;53.478;10.182;2022-08-19T08:03:18;19.50;99.90
23744;DHT22;12052;53.478;10.182;2022-08-19T08:05:44;19.60;99.90
23744;DHT22;12052;53.478;10.182;2022-08-19T08:08:28;19.60;99.90
23744;DHT22;12052;53.478;10.182;2022-08-19T08:11:13;19.60;99.90
23744;DHT22;12052;53.478;10.182;2022-08-19T08:13:39;19.60;99.90
23744;DHT22;12052;53.478;10.182;2022-08-19T08:16:06;19.60;99.90
23744;DHT22;12052;53.478;10.182;2022-08-19T08:18:32;19.60;99.90
23744;DHT22;12052;53.478;10.182;2022-08-19T08:20:59;19.50;99.90
23744;DHT22;12052;53.478;10.182;2022-08-19T08:23:25;19.50;99.90
23744;DHT22;12052;53.478;10.182;2022-08-19T08:25:53;19.60;99.90
23744;DHT22;12052;53.478;10.182;2022-08-19T08:28:20;19.60;99.90
23744;DHT22;12052;53.478;10.182;2022-08-19T08:30:47;19.50;99.90
23744;DHT22;12052;53.478;10.182;2022-08-19T08:33:16;19.50;99.90
23744;DHT22;12052;53.478;10.182;2022-08-19T08:35:42;19.50;99.90
23744;DHT22;12052;53.478;10.182;2022-08-19T08:38:08;19.50;99.90
23744;DHT22;12052;53.478;10.182;2022-08-19T08:40:44;19.50;99.90
23744;DHT22;12052;53.478;10.182;2022-08-19T08:43:33;19.50;99.90
23744;DHT22;12052;53.478;10.182;2022-08-19T08:46:09;19.50;99.90
23744;DHT22;12052;53.478;10.182;2022-08-19T08:48:39;19.60;99.90
23744;DHT22;12052;53.478;10.182;2022-08-19T08:51:13;19.60;99.90
23744;DHT22;12052;53.478;10.182;2022-08-19T08:53:42;19.60;99.90
23744;DHT22;12052;53.478;10.182;2022-08-19T08:56:09;19.50;99.90
23744;DHT22;12052;53.478;10.182;2022-08-19T08:58:54;19.50;99.90
23744;DHT22;12052;53.478;10.182;2022-08-19T09:01:22;19.60;99.90
23744;DHT22;12052;53.478;10.182;2022-08-19T09:03:48;19.60;99.90
23744;DHT22;12052;53.478;10.182;2022-08-19T09:06:28;19.50;99.90
23744;DHT22;12052;53.478;10.182;2022-08-19T09:09:05;19.60;99.90
23744;DHT22;12052;53.478;10.182;2022-08-19T09:11:43;19.60;99.90
23744;DHT22;12052;53.478;10.182;2022-08-19T09:16:57;19.60;99.90
23744;DHT22;12052;53.478;10.182;2022-08-19T09:19:23;19.60;99.90
23744;DHT22;12052;53.478;10.182;2022-08-19T09:21:49;19.60;99.90
23744;DHT22;12052;53.478;10.182;2022-08-19T09:24:15;19.60;99.90
23744;DHT22;12052;53.478;10.182;2022-08-19T09:26:41;19.60;99.90
23744;DHT22;12052;53.478;10.182;2022-08-19T09:29:09;19.70;99.90
23744;DHT22;12052;53.478;10.182;2022-08-19T09:31:35;19.60;99.90
23744;DHT22;12052;53.478;10.182;2022-08-19T09:34:00;19.60;99.90
23744;DHT22;12052;53.478;10.182;2022-08-19T09:36:28;19.60;99.90
23744;DHT22;12052;53.478;10.182;2022-08-19T09:38:55;19.60;99.90
23744;DHT22;12052;53.478;10.182;2022-08-19T09:41:23;19.70;99.90
23744;DHT22;12052;53.478;10.182;2022-08-19T09:43:51;19.70;99.90
23744;DHT22;12052;53.478;10.182;2022-08-19T09:46:18;19.70;99.90
23744;DHT22;12052;53.478;10.182;2022-08-19T09:48:47;19.70;99.90
23744;DHT22;12052;53.478;10.182;2022-08-19T09:51:16;19.70;99.90
23744;DHT22;12052;53.478;10.182;2022-08-19T09:53:44;19.70;99.90
23744;DHT22;12052;53.478;10.182;2022-08-19T09:56:11;19.80;99.90
23744;DHT22;12052;53.478;10.182;2022-08-19T09:58:38;19.80;99.90
23744;DHT22;12052;53.478;10.182;2022-08-19T10:01:04;19.80;99.90
23744;DHT22;12052;53.478;10.182;2022-08-19T10:03:32;19.80;99.90
23744;DHT22;12052;53.478;10.182;2022-08-19T10:06:00;19.80;99.90
23744;DHT22;12052;53.478;10.182;2022-08-19T10:08:29;19.80;99.90
23744;DHT22;12052;53.478;10.182;2022-08-19T10:10:55;19.90;99.90
23744;DHT22;12052;53.478;10.182;2022-08-19T10:13:24;19.90;99.90
23744;DHT22;12052;53.478;10.182;2022-08-19T10:15:52;19.80;99.90
23744;DHT22;12052;53.478;10.182;2022-08-19T10:18:20;19.80;99.90
23744;DHT22;12052;53.478;10.182;2022-08-19T10:20:47;19.90;99.90
23744;DHT22;12052;53.478;10.182;2022-08-19T10:23:13;19.90;99.90
23744;DHT22;12052;53.478;10.182;2022-08-19T10:25:40;19.90;99.90
23744;DHT22;12052;53.478;10.182;2022-08-19T10:28:06;19.90;99.90
23744;DHT22;12052;53.478;10.182;2022-08-19T10:30:33;19.80;99.90
23744;DHT22;12052;53.478;10.182;2022-08-19T10:33:00;19.90;99.90
23744;DHT22;12052;53.478;10.182;2022-08-19T10:35:26;19.90;99.90
23744;DHT22;12052;53.478;10.182;2022-08-19T10:37:53;19.90;99.90
23744;DHT22;12052;53.478;10.182;2022-08-19T10:40:19;19.90;99.90
23744;DHT22;12052;53.478;10.182;2022-08-19T10:42:44;19.90;99.90
23744;DHT22;12052;53.478;10.182;2022-08-19T10:45:10;20.00;99.90
23744;DHT22;12052;53.478;10.182;2022-08-19T10:47:37;20.00;99.90
23744;DHT22;12052;53.478;10.182;2022-08-19T10:50:03;19.90;99.90
23744;DHT22;12052;53.478;10.182;2022-08-19T10:52:49;20.00;99.90
23744;DHT22;12052;53.478;10.182;2022-08-19T10:55:15;20.00;99.90
23744;DHT22;12052;53.478;10.182;2022-08-19T10:58:16;20.10;99.90
23744;DHT22;12052;53.478;10.182;2022-08-19T11:00:42;20.10;99.90
23744;DHT22;12052;53.478;10.182;2022-08-19T11:03:11;20.10;99.90
23744;DHT22;12052;53.478;10.182;2022-08-19T11:05:37;20.10;99.90
23744;DHT22;12052;53.478;10.182;2022-08-19T11:08:03;20.10;99.90
23744;DHT22;12052;53.478;10.182;2022-08-19T11:10:29;20.20;99.90
23744;DHT22;12052;53.478;10.182;2022-08-19T11:12:54;20.20;99.90
23744;DHT22;12052;53.478;10.182;2022-08-19T11:15:20;20.20;99.90
23744;DHT22;12052;53.478;10.182;2022-08-19T11:17:46;20.20;99.90
23744;DHT22;12052;53.478;10.182;2022-08-19T11:20:13;20.20;99.90
23744;DHT22;12052;53.478;10.182;2022-08-19T11:22:40;20.20;99.90
23744;DHT22;12052;53.478;10.182;2022-08-19T11:25:08;20.30;99.90
23744;DHT22;12052;53.478;10.182;2022-08-19T11:27:36;20.30;99.90
23744;DHT22;12052;53.478;10.182;2022-08-19T11:30:03;20.30;99.90
23744;DHT22;12052;53.478;10.182;2022-08-19T11:32:29;20.30;99.90
23744;DHT22;12052;53.478;10.182;2022-08-19T11:34:54;20.40;99.90
23744;DHT22;12052;53.478;10.182;2022-08-19T11:37:20;20.40;99.90
23744;DHT22;12052;53.478;10.182;2022-08-19T11:39:45;20.40;99.90
23744;DHT22;12052;53.478;10.182;2022-08-19T11:42:11;20.50;99.90
23744;DHT22;12052;53.478;10.182;2022-08-19T11:44:55;20.50;99.90
23744;DHT22;12052;53.478;10.182;2022-08-19T11:47:21;20.50;99.90
23744;DHT22;12052;53.478;10.182;2022-08-19T11:49:47;20.50;99.90
23744;DHT22;12052;53.478;10.182;2022-08-19T11:52:12;20.50;99.90
23744;DHT22;12052;53.478;10.182;2022-08-19T11:54:38;20.50;99.90
23744;DHT22;12052;53.478;10.182;2022-08-19T11:57:04;20.50;99.90
23744;DHT22;12052;53.478;10.182;2022-08-19T11:59:30;20.50;99.90
23744;DHT22;12052;53.478;10.182;2022-08-19T12:01:56;20.50;99.90
23744;DHT22;12052;53.478;10.182;2022-08-19T12:04:22;20.50;99.90
23744;DHT22;12052;53.478;10.182;2022-08-19T12:06:48;20.50;99.90
23744;DHT22;12052;53.478;10.182;2022-08-19T12:09:15;20.60;99.90
23744;DHT22;12052;53.478;10.182;2022-08-19T12:11:42;20.70;99.90
23744;DHT22;12052;53.478;10.182;2022-08-19T12:14:10;20.70;99.90
23744;DHT22;12052;53.478;10.182;2022-08-19T12:16:36;20.70;99.90
23744;DHT22;12052;53.478;10.182;2022-08-19T12:19:03;20.80;99.90
23744;DHT22;12052;53.478;10.182;2022-08-19T12:21:33;20.90;99.90
23744;DHT22;12052;53.478;10.182;2022-08-19T12:24:00;20.90;99.90
23744;DHT22;12052;53.478;10.182;2022-08-19T12:26:28;20.90;99.90
23744;DHT22;12052;53.478;10.182;2022-08-19T12:28:55;20.90;99.90
23744;DHT22;12052;53.478;10.182;2022-08-19T12:31:20;20.90;99.90
23744;DHT22;12052;53.478;10.182;2022-08-19T12:33:46;20.90;99.90
23744;DHT22;12052;53.478;10.182;2022-08-19T12:36:14;20.90;99.90
23744;DHT22;12052;53.478;10.182;2022-08-19T12:38:40;21.00;99.90
23744;DHT22;12052;53.478;10.182;2022-08-19T12:41:10;21.00;99.90
23744;DHT22;12052;53.478;10.182;2022-08-19T12:43:36;21.10;99.90
23744;DHT22;12052;53.478;10.182;2022-08-19T12:46:07;21.10;99.90
23744;DHT22;12052;53.478;10.182;2022-08-19T12:48:33;21.10;99.90
23744;DHT22;12052;53.478;10.182;2022-08-19T12:51:00;21.20;99.90
23744;DHT22;12052;53.478;10.182;2022-08-19T12:53:26;21.30;99.90
23744;DHT22;12052;53.478;10.182;2022-08-19T12:55:58;21.40;99.90
23744;DHT22;12052;53.478;10.182;2022-08-19T12:58:25;21.60;99.90
23744;DHT22;12052;53.478;10.182;2022-08-19T13:00:51;21.80;99.90
23744;DHT22;12052;53.478;10.182;2022-08-19T13:03:17;21.90;99.90
23744;DHT22;12052;53.478;10.182;2022-08-19T13:05:43;22.00;99.90
23744;DHT22;12052;53.478;10.182;2022-08-19T13:08:08;22.10;99.90
23744;DHT22;12052;53.478;10.182;2022-08-19T13:10:35;22.20;99.90
23744;DHT22;12052;53.478;10.182;2022-08-19T13:13:07;22.20;99.90
23744;DHT22;12052;53.478;10.182;2022-08-19T13:15:37;22.30;99.90
23744;DHT22;12052;53.478;10.182;2022-08-19T13:18:05;22.30;99.90
23744;DHT22;12052;53.478;10.182;2022-08-19T13:20:31;22.30;99.90
23744;DHT22;12052;53.478;10.182;2022-08-19T13:22:57;22.50;99.90
23744;DHT22;12052;53.478;10.182;2022-08-19T13:25:22;22.60;99.90
23744;DHT22;12052;53.478;10.182;2022-08-19T13:27:49;22.60;99.90
23744;DHT22;12052;53.478;10.182;2022-08-19T13:30:16;22.60;99.90
23744;DHT22;12052;53.478;10.182;2022-08-19T13:33:00;22.70;99.90
23744;DHT22;12052;53.478;10.182;2022-08-19T13:35:47;22.70;99.90
23744;DHT22;12052;53.478;10.182;2022-08-19T13:38:14;22.80;99.90
23744;DHT22;12052;53.478;10.182;2022-08-19T13:40:40;22.90;99.90
23744;DHT22;12052;53.478;10.182;2022-08-19T13:43:06;22.90;99.90
23744;DHT22;12052;53.478;10.182;2022-08-19T13:45:33;22.90;99.90
23744;DHT22;12052;53.478;10.182;2022-08-19T13:48:00;23.00;99.90
23744;DHT22;12052;53.478;10.182;2022-08-19T13:50:29;23.00;99.90
23744;DHT22;12052;53.478;10.182;2022-08-19T13:52:57;23.10;99.90
23744;DHT22;12052;53.478;10.182;2022-08-19T13:55:23;23.10;99.90
23744;DHT22;12052;53.478;10.182;2022-08-19T13:57:58;23.10;99.90
23744;DHT22;12052;53.478;10.182;2022-08-19T14:00:26;23.10;99.90
23744;DHT22;12052;53.478;10.182;2022-08-19T14:02:53;23.00;99.90
23744;DHT22;12052;53.478;10.182;2022-08-19T14:05:20;23.00;99.90
23744;DHT22;12052;53.478;10.182;2022-08-19T14:07:46;22.90;99.90
23744;DHT22;12052;53.478;10.182;2022-08-19T14:10:14;22.90;99.90
23744;DHT22;12052;53.478;10.182;2022-08-19T14:12:41;22.90;99.90
23744;DHT22;12052;53.478;10.182;2022-08-19T14:15:08;22.80;99.90
23744;DHT22;12052;53.478;10.182;2022-08-19T14:17:34;22.80;99.90
23744;DHT22;12052;53.478;10.182;2022-08-19T14:20:02;22.90;99.90
23744;DHT22;12052;53.478;10.182;2022-08-19T14:22:29;22.90;99.90
23744;DHT22;12052;53.478;10.182;2022-08-19T14:24:56;22.80;99.90
23744;DHT22;12052;53.478;10.182;2022-08-19T14:27:22;22.80;99.90
23744;DHT22;12052;53.478;10.182;2022-08-19T14:29:50;22.80;99.90
23744;DHT22;12052;53.478;10.182;2022-08-19T14:32:16;22.80;99.90
23744;DHT22;12052;53.478;10.182;2022-08-19T14:34:41;22.70;99.90
23744;DHT22;12052;53.478;10.182;2022-08-19T14:37:07;22.60;99.90
23744;DHT22;12052;53.478;10.182;2022-08-19T14:39:34;22.60;99.90
23744;DHT22;12052;53.478;10.182;2022-08-19T14:42:00;22.50;99.90
23744;DHT22;12052;53.478;10.182;2022-08-19T14:44:26;22.50;99.90
23744;DHT22;12052;53.478;10.182;2022-08-19T14:46:52;22.40;99.90
23744;DHT22;12052;53.478;10.182;2022-08-19T14:49:18;22.40;99.90
23744;DHT22;12052;53.478;10.182;2022-08-19T14:51:44;22.40;99.90
23744;DHT22;12052;53.478;10.182;2022-08-19T14:54:12;22.40;99.90
23744;DHT22;12052;53.478;10.182;2022-08-19T14:56:39;22.40;99.90
23744;DHT22;12052;53.478;10.182;2022-08-19T14:59:05;22.40;99.90
23744;DHT22;12052;53.478;10.182;2022-08-19T15:01:31;22.40;99.90
23744;DHT22;12052;53.478;10.182;2022-08-19T15:03:57;22.40;99.90
23744;DHT22;12052;53.478;10.182;2022-08-19T15:06:23;22.40;99.90
23744;DHT22;12052;53.478;10.182;2022-08-19T15:08:49;22.40;99.90
23744;DHT22;12052;53.478;10.182;2022-08-19T15:11:19;22.40;99.90
23744;DHT22;12052;53.478;10.182;2022-08-19T15:13:46;22.40;99.90
23744;DHT22;12052;53.478;10.182;2022-08-19T15:16:12;22.40;99.90
23744;DHT22;12052;53.478;10.182;2022-08-19T15:18:40;22.50;99.90
23744;DHT22;12052;53.478;10.182;2022-08-19T15:21:09;22.50;99.90
23744;DHT22;12052;53.478;10.182;2022-08-19T15:23:35;22.60;99.90